Time;durP1;ratioP1;P1;durP2;ratioP2;P2;SDS_P1;SDS_P2;PMS_P1;PMS_P2;Temp;Humidity;BMP_temperature;BMP_pressure;BME280_temperature;BME280_humidity;BME280_pressure;Samples;Min_cycle;Max_cycle;Signal;HPM_P1;HPM_P2
2021/10/31 00:02:01;;;;;;;7.40;6.43;;;;;;;;;;5100992;28;20196;-82
2021/10/31 00:04:28;;;;;;;6.78;6.15;;;;;;;;;;5102750;28;20218;-82
2021/10/31 00:06:56;;;;;;;5.65;5.15;;;;;;;;;;5102250;28;20238;-82
2021/10/31 00:09:25;;;;;;;7.15;6.18;;;;;;;;;;5100299;28;20197;-83
2021/10/31 00:11:52;;;;;;;7.45;6.55;;;;;;;;;;5101662;28;20663;-82
2021/10/31 00:14:20;;;;;;;6.35;5.75;;;;;;;;;;5102041;28;20749;-83
2021/10/31 00:16:48;;;;;;;6.25;5.65;;;;;;;;;;5102654;28;20200;-82
2021/10/31 00:19:16;;;;;;;6.50;5.57;;;;;;;;;;5099284;28;20195;-82
2021/10/31 00:21:44;;;;;;;6.57;5.95;;;;;;;;;;5102194;28;20204;-82
2021/10/31 00:24:12;;;;;;;7.30;6.57;;;;;;;;;;5102299;28;20255;-82
2021/10/31 00:26:42;;;;;;;6.72;5.95;;;;;;;;;;5102336;28;20193;-82
2021/10/31 00:29:09;;;;;;;6.47;5.80;;;;;;;;;;5097026;28;20279;-83
2021/10/31 00:31:37;;;;;;;6.32;5.72;;;;;;;;;;5093908;28;20181;-82
2021/10/31 00:34:04;;;;;;;6.55;6.03;;;;;;;;;;5093355;28;20220;-82
2021/10/31 00:36:32;;;;;;;5.47;5.07;;;;;;;;;;5093373;28;20203;-83
2021/10/31 00:39:00;;;;;;;6.95;6.25;;;;;;;;;;5093754;28;20185;-81
2021/10/31 00:41:27;;;;;;;7.13;6.53;;;;;;;;;;5093429;28;20192;-82
2021/10/31 00:43:56;;;;;;;6.90;6.22;;;;;;;;;;5093406;28;20577;-82
2021/10/31 00:46:23;;;;;;;6.03;5.43;;;;;;;;;;5093814;28;20204;-82
2021/10/31 00:48:51;;;;;;;5.43;5.00;;;;;;;;;;5093661;28;20197;-82
2021/10/31 00:51:19;;;;;;;7.35;5.40;;;;;;;;;;5092934;28;20748;-83
2021/10/31 00:53:46;;;;;;;6.07;5.57;;;;;;;;;;5093254;28;20220;-81
2021/10/31 00:56:14;;;;;;;5.07;4.57;;;;;;;;;;5093508;28;20200;-82
2021/10/31 00:58:41;;;;;;;6.05;5.53;;;;;;;;;;5092905;28;20282;-82
2021/10/31 01:01:11;;;;;;;5.32;4.82;;;;;;;;;;5093362;28;20188;-83
2021/10/31 01:03:40;;;;;;;4.60;4.20;;;;;;;;;;5093519;28;20216;-82
2021/10/31 01:06:39;;;;;;;5.63;5.13;;;;;;;;;;5094475;28;20184;-82
2021/10/31 01:09:16;;;;;;;5.47;4.97;;;;;;;;;;5096467;28;20702;-82
2021/10/31 01:11:55;;;;;;;5.10;4.70;;;;;;;;;;5096789;28;20189;-82
2021/10/31 01:14:41;;;;;;;5.82;5.22;;;;;;;;;;5096445;28;20227;-81
2021/10/31 01:17:28;;;;;;;5.45;4.95;;;;;;;;;;5096942;28;20555;-82
2021/10/31 01:20:09;;;;;;;7.22;5.80;;;;;;;;;;5096557;28;20195;-82
2021/10/31 01:22:49;;;;;;;5.82;5.35;;;;;;;;;;5096627;28;20702;-83
2021/10/31 01:25:35;;;;;;;4.97;4.47;;;;;;;;;;5097001;28;20192;-83
2021/10/31 01:28:15;;;;;;;4.72;4.32;;;;;;;;;;5096806;28;20198;-83
2021/10/31 01:30:49;;;;;;;4.30;3.95;;;;;;;;;;5096698;28;20192;-82
2021/10/31 01:33:24;;;;;;;5.28;4.78;;;;;;;;;;5096624;28;20230;-82
2021/10/31 01:36:00;;;;;;;4.90;4.47;;;;;;;;;;5096410;28;20582;-82
2021/10/31 01:38:36;;;;;;;5.32;4.82;;;;;;;;;;5096607;28;20188;-82
2021/10/31 01:41:11;;;;;;;5.78;5.30;;;;;;;;;;5096791;28;20192;-82
2021/10/31 01:43:46;;;;;;;6.55;5.47;;;;;;;;;;5096394;28;20227;-83
2021/10/31 01:46:22;;;;;;;5.68;5.18;;;;;;;;;;5096736;28;20181;-83
2021/10/31 01:48:58;;;;;;;5.82;5.32;;;;;;;;;;5096065;28;20188;-82
2021/10/31 01:51:36;;;;;;;6.22;5.00;;;;;;;;;;5096481;28;20192;-82
2021/10/31 01:54:06;;;;;;;6.80;6.20;;;;;;;;;;5095675;28;20615;-82
2021/10/31 01:56:37;;;;;;;6.45;5.93;;;;;;;;;;5096219;28;20183;-82
2021/10/31 01:59:07;;;;;;;6.20;5.65;;;;;;;;;;5095906;28;20276;-81
2021/10/31 02:01:37;;;;;;;5.97;5.38;;;;;;;;;;5096242;28;20208;-82
2021/10/31 02:04:11;;;;;;;4.68;4.28;;;;;;;;;;5095968;28;20224;-82
2021/10/31 02:06:43;;;;;;;5.25;4.78;;;;;;;;;;5095708;28;20185;-82
2021/10/31 02:09:11;;;;;;;5.13;4.63;;;;;;;;;;5095748;28;20185;-82
2021/10/31 02:11:40;;;;;;;5.20;4.72;;;;;;;;;;5096154;28;20220;-83
2021/10/31 02:14:08;;;;;;;6.80;6.18;;;;;;;;;;5095200;28;20212;-82
2021/10/31 02:16:36;;;;;;;5.93;5.43;;;;;;;;;;5096026;28;20191;-82
2021/10/31 02:19:07;;;;;;;6.97;6.38;;;;;;;;;;5095813;28;20207;-82
2021/10/31 02:21:37;;;;;;;6.05;5.50;;;;;;;;;;5095700;28;20182;-82
2021/10/31 02:24:09;;;;;;;5.55;5.05;;;;;;;;;;5095669;28;20220;-83
2021/10/31 02:26:36;;;;;;;5.15;4.72;;;;;;;;;;5095733;28;20656;-82
2021/10/31 02:29:07;;;;;;;6.90;6.25;;;;;;;;;;5095279;28;20235;-83
2021/10/31 02:31:37;;;;;;;5.85;5.05;;;;;;;;;;5095787;28;20196;-82
2021/10/31 02:34:06;;;;;;;4.15;3.85;;;;;;;;;;5095334;28;20295;-83
2021/10/31 02:36:34;;;;;;;5.28;4.85;;;;;;;;;;5095583;28;20191;-83
2021/10/31 02:39:02;;;;;;;6.97;6.38;;;;;;;;;;5095063;28;20230;-83
2021/10/31 02:41:33;;;;;;;5.18;4.68;;;;;;;;;;5095212;28;20195;-83
2021/10/31 02:44:00;;;;;;;5.60;5.10;;;;;;;;;;5095289;28;20216;-84
2021/10/31 02:46:31;;;;;;;4.63;4.22;;;;;;;;;;5095222;28;20191;-84
2021/10/31 02:48:59;;;;;;;6.30;5.80;;;;;;;;;;5095490;28;20194;-83
2021/10/31 02:51:39;;;;;;;7.70;6.90;;;;;;;;;;5095029;28;20188;-82
2021/10/31 02:54:14;;;;;;;7.15;6.53;;;;;;;;;;5094651;28;20239;-83
2021/10/31 02:56:51;;;;;;;6.13;5.63;;;;;;;;;;5094945;28;20207;-82
2021/10/31 02:59:25;;;;;;;5.15;4.68;;;;;;;;;;5094553;28;20189;-83
2021/10/31 03:01:53;;;;;;;5.25;4.80;;;;;;;;;;5093881;28;20647;-83
2021/10/31 03:04:23;;;;;;;4.15;3.75;;;;;;;;;;5094385;28;20315;-83
2021/10/31 03:06:50;;;;;;;4.28;3.97;;;;;;;;;;5094717;28;20184;-83
2021/10/31 03:09:18;;;;;;;6.28;5.68;;;;;;;;;;5094497;28;20200;-83
2021/10/31 03:11:47;;;;;;;4.47;4.07;;;;;;;;;;5094449;28;20197;-83
2021/10/31 03:14:15;;;;;;;5.78;5.28;;;;;;;;;;5094638;28;20224;-83
2021/10/31 03:16:42;;;;;;;6.53;5.93;;;;;;;;;;5094431;28;20683;-83
2021/10/31 03:19:10;;;;;;;5.03;4.63;;;;;;;;;;5094152;28;20204;-83
2021/10/31 03:21:37;;;;;;;5.10;4.70;;;;;;;;;;5094761;28;20184;-83
2021/10/31 03:24:06;;;;;;;6.53;6.03;;;;;;;;;;5094813;28;20303;-83
2021/10/31 03:26:33;;;;;;;4.85;4.45;;;;;;;;;;5093464;28;20204;-83
2021/10/31 03:29:02;;;;;;;6.60;6.00;;;;;;;;;;5094107;28;20195;-83
2021/10/31 03:31:29;;;;;;;6.05;5.55;;;;;;;;;;5094089;28;20659;-83
2021/10/31 03:33:57;;;;;;;5.38;4.97;;;;;;;;;;5094380;28;20220;-83
2021/10/31 03:36:24;;;;;;;6.28;5.68;;;;;;;;;;5093506;28;20223;-83
2021/10/31 03:38:52;;;;;;;5.75;5.20;;;;;;;;;;5093937;28;20287;-82
2021/10/31 03:41:19;;;;;;;5.53;5.10;;;;;;;;;;5094144;28;20206;-82
2021/10/31 03:43:47;;;;;;;5.65;5.15;;;;;;;;;;5093679;28;20715;-83
2021/10/31 03:46:15;;;;;;;4.93;4.47;;;;;;;;;;5093214;28;20177;-83
2021/10/31 03:48:43;;;;;;;5.72;5.22;;;;;;;;;;5092419;28;20188;-83
2021/10/31 03:51:10;;;;;;;5.50;5.00;;;;;;;;;;5093988;28;20177;-82
2021/10/31 03:53:38;;;;;;;4.88;4.47;;;;;;;;;;5093393;28;20232;-82
2021/10/31 03:56:06;;;;;;;4.88;4.47;;;;;;;;;;5093682;28;20251;-82
2021/10/31 03:58:33;;;;;;;3.90;3.60;;;;;;;;;;5093463;28;20196;-83
2021/10/31 04:01:01;;;;;;;6.63;6.13;;;;;;;;;;5093817;28;20192;-83
2021/10/31 04:03:29;;;;;;;5.10;4.70;;;;;;;;;;5093463;28;20228;-83
2021/10/31 04:05:57;;;;;;;5.22;4.82;;;;;;;;;;5093352;28;20581;-82
2021/10/31 04:08:24;;;;;;;6.13;5.57;;;;;;;;;;5093742;28;20192;-82
2021/10/31 04:10:52;;;;;;;4.78;4.38;;;;;;;;;;5093380;28;20196;-83
2021/10/31 04:13:19;;;;;;;6.78;6.25;;;;;;;;;;5093218;28;20224;-83
2021/10/31 04:15:47;;;;;;;7.97;7.28;;;;;;;;;;5093776;28;20204;-83
2021/10/31 04:18:14;;;;;;;6.88;6.20;;;;;;;;;;5093328;28;20207;-82
2021/10/31 04:20:43;;;;;;;7.53;6.85;;;;;;;;;;5093636;28;20200;-83
2021/10/31 04:23:12;;;;;;;5.18;4.78;;;;;;;;;;5093271;28;20707;-83
2021/10/31 04:25:39;;;;;;;4.50;4.10;;;;;;;;;;5093400;28;20203;-82
2021/10/31 04:28:07;;;;;;;5.82;5.28;;;;;;;;;;5093188;28;20648;-82
2021/10/31 04:30:34;;;;;;;5.18;4.78;;;;;;;;;;5093396;28;20272;-82
2021/10/31 04:33:02;;;;;;;5.47;4.97;;;;;;;;;;5092546;28;20220;-82
2021/10/31 04:35:29;;;;;;;5.45;4.95;;;;;;;;;;5093430;28;20215;-82
2021/10/31 04:38:07;;;;;;;6.10;5.50;;;;;;;;;;5093216;28;20188;-82
2021/10/31 04:40:37;;;;;;;5.90;5.40;;;;;;;;;;5094207;28;20200;-83
2021/10/31 04:43:10;;;;;;;6.85;6.03;;;;;;;;;;5097284;28;20216;-82
2021/10/31 04:45:38;;;;;;;5.55;5.15;;;;;;;;;;5097319;28;20196;-83
2021/10/31 04:48:06;;;;;;;6.32;5.82;;;;;;;;;;5096907;28;20714;-82
2021/10/31 04:50:33;;;;;;;5.30;4.82;;;;;;;;;;5096704;28;20204;-82
2021/10/31 04:53:03;;;;;;;5.88;5.40;;;;;;;;;;5083660;28;20212;-83
2021/10/31 04:55:31;;;;;;;5.35;4.95;;;;;;;;;;4994049;28;20200;-82
2021/10/31 04:57:59;;;;;;;5.53;5.03;;;;;;;;;;4992630;28;20579;-83
2021/10/31 05:00:26;;;;;;;7.30;6.60;;;;;;;;;;4994423;28;20585;-83
2021/10/31 05:02:54;;;;;;;5.18;4.78;;;;;;;;;;4994053;28;20228;-83
2021/10/31 05:05:22;;;;;;;5.43;5.03;;;;;;;;;;4986637;28;20193;-82
2021/10/31 05:07:52;;;;;;;6.88;6.18;;;;;;;;;;4974426;28;20181;-82
2021/10/31 05:10:21;;;;;;;5.82;5.22;;;;;;;;;;4975058;28;20247;-82
2021/10/31 05:12:49;;;;;;;6.78;6.18;;;;;;;;;;4974479;28;20623;-82
2021/10/31 05:15:17;;;;;;;5.82;5.38;;;;;;;;;;4974168;28;20207;-82
2021/10/31 05:17:44;;;;;;;6.32;5.72;;;;;;;;;;4974468;28;20236;-82
2021/10/31 05:20:12;;;;;;;6.50;6.00;;;;;;;;;;4974307;28;20209;-82
2021/10/31 05:22:41;;;;;;;5.47;5.00;;;;;;;;;;4974547;28;20192;-82
2021/10/31 05:25:10;;;;;;;5.57;5.07;;;;;;;;;;4978367;28;20199;-82
2021/10/31 05:27:40;;;;;;;5.28;4.88;;;;;;;;;;4994068;28;20184;-82
2021/10/31 05:30:10;;;;;;;5.97;5.47;;;;;;;;;;4993569;28;20218;-82
2021/10/31 05:32:38;;;;;;;5.70;5.30;;;;;;;;;;5096206;28;20187;-82
2021/10/31 05:35:09;;;;;;;4.32;3.92;;;;;;;;;;5091940;28;20189;-82
2021/10/31 05:37:40;;;;;;;5.35;4.85;;;;;;;;;;5075046;28;20202;-82
2021/10/31 05:40:12;;;;;;;5.32;4.82;;;;;;;;;;5076199;28;20264;-83
2021/10/31 05:42:41;;;;;;;5.15;4.72;;;;;;;;;;5075998;28;20189;-82
2021/10/31 05:45:10;;;;;;;5.70;5.20;;;;;;;;;;5079835;28;20196;-82
2021/10/31 05:47:39;;;;;;;4.15;3.85;;;;;;;;;;5096341;28;20181;-83
2021/10/31 05:50:09;;;;;;;5.47;5.07;;;;;;;;;;5095972;28;20554;-83
2021/10/31 05:55:16;;;;;;;5.55;5.05;;;;;;;;;;5052968;28;20229;-86
2021/10/31 05:58:26;;;;;;;6.15;5.55;;;;;;;;;;5055042;28;20210;-85
2021/10/31 06:01:00;;;;;;;5.95;5.45;;;;;;;;;;5055052;28;20174;-87
2021/10/31 06:03:29;;;;;;;5.03;4.63;;;;;;;;;;5054572;28;20232;-87
2021/10/31 06:06:05;;;;;;;6.20;5.60;;;;;;;;;;5054907;28;20190;-87
2021/10/31 06:09:16;;;;;;;4.65;4.28;;;;;;;;;;5054570;28;20547;-86
2021/10/31 06:12:00;;;;;;;4.57;4.20;;;;;;;;;;5055223;28;20205;-87
2021/10/31 06:14:53;;;;;;;5.13;4.72;;;;;;;;;;5054564;28;20232;-87
2021/10/31 06:17:40;;;;;;;5.57;5.07;;;;;;;;;;5054668;28;20296;-87
2021/10/31 06:20:21;;;;;;;6.38;5.75;;;;;;;;;;5055269;28;20256;-88
2021/10/31 06:23:38;;;;;;;5.82;5.32;;;;;;;;;;5055261;28;20248;-87
2021/10/31 06:26:30;;;;;;;7.68;6.75;;;;;;;;;;5054632;28;20185;-87
2021/10/31 06:29:12;;;;;;;5.82;5.32;;;;;;;;;;5054416;28;20184;-87
2021/10/31 06:31:56;;;;;;;5.35;4.95;;;;;;;;;;5054497;28;20603;-87
2021/10/31 06:35:02;;;;;;;5.82;5.32;;;;;;;;;;5054041;28;20237;-87
2021/10/31 06:37:37;;;;;;;5.43;4.60;;;;;;;;;;5054243;28;20676;-88
2021/10/31 06:40:33;;;;;;;5.10;4.70;;;;;;;;;;5054335;28;20213;-87
2021/10/31 06:46:45;;;;;;;4.72;4.32;;;;;;;;;;5054433;28;20247;-87
2021/10/31 06:50:02;;;;;;;5.28;4.80;;;;;;;;;;5054460;28;20205;-86
2021/10/31 06:52:55;;;;;;;4.78;4.25;;;;;;;;;;5054029;28;20600;-87
2021/10/31 06:55:30;;;;;;;4.65;4.20;;;;;;;;;;5073648;28;20205;-87
2021/10/31 06:57:58;;;;;;;7.53;6.82;;;;;;;;;;5073397;28;20762;-85
2021/10/31 07:00:42;;;;;;;4.50;4.10;;;;;;;;;;5073636;28;20189;-87
2021/10/31 07:03:52;;;;;;;4.72;4.32;;;;;;;;;;5073006;28;20239;-87
2021/10/31 07:06:42;;;;;;;4.97;4.47;;;;;;;;;;5073653;28;20199;-87
2021/10/31 07:10:13;;;;;;;5.03;4.50;;;;;;;;;;5073219;28;20269;-87
2021/10/31 07:12:45;;;;;;;5.68;5.18;;;;;;;;;;5073680;28;20201;-89
2021/10/31 07:15:12;;;;;;;5.25;4.75;;;;;;;;;;5073958;28;20630;-86
2021/10/31 07:18:49;;;;;;;5.05;4.65;;;;;;;;;;5074515;28;20295;-87
2021/10/31 07:24:58;;;;;;;4.95;4.53;;;;;;;;;;5073407;28;20558;-88
2021/10/31 07:28:18;;;;;;;3.95;3.63;;;;;;;;;;5073446;28;20224;-87
2021/10/31 07:34:26;;;;;;;3.47;3.17;;;;;;;;;;5073249;28;20780;-88
2021/10/31 07:37:00;;;;;;;4.10;3.70;;;;;;;;;;5072953;28;20645;-85
2021/10/31 07:39:45;;;;;;;3.67;3.38;;;;;;;;;;5072490;28;20185;-86
2021/10/31 07:45:54;;;;;;;3.65;3.35;;;;;;;;;;5072966;28;20180;-87
2021/10/31 07:48:22;;;;;;;4.20;3.85;;;;;;;;;;5071604;28;20235;-86
2021/10/31 07:51:02;;;;;;;3.40;3.10;;;;;;;;;;5072974;28;20652;-88
2021/10/31 07:53:55;;;;;;;3.00;2.80;;;;;;;;;;5071901;28;20712;-87
2021/10/31 07:56:36;;;;;;;2.60;2.40;;;;;;;;;;5052517;28;20664;-87
2021/10/31 08:02:46;;;;;;;3.70;3.40;;;;;;;;;;5052933;28;20266;-86
2021/10/31 08:05:15;;;;;;;3.30;2.72;;;;;;;;;;5051952;28;20202;-84
2021/10/31 08:07:58;;;;;;;2.92;2.72;;;;;;;;;;5052280;28;20185;-86
2021/10/31 08:10:28;;;;;;;2.80;2.60;;;;;;;;;;5052130;28;20196;-89
2021/10/31 08:13:27;;;;;;;2.80;2.60;;;;;;;;;;5052780;28;20711;-85
2021/10/31 08:16:08;;;;;;;6.00;3.10;;;;;;;;;;5057778;28;20193;-86
2021/10/31 08:18:40;;;;;;;3.30;3.10;;;;;;;;;;5059514;28;20215;-88
2021/10/31 08:22:04;;;;;;;3.10;2.83;;;;;;;;;;5059115;28;20714;-89
2021/10/31 08:24:47;;;;;;;3.45;2.42;;;;;;;;;;5058824;28;20848;-89
2021/10/31 08:27:21;;;;;;;2.83;2.63;;;;;;;;;;5059337;28;20632;-90
2021/10/31 08:30:30;;;;;;;2.97;2.72;;;;;;;;;;5059341;28;20269;-89
2021/10/31 08:33:32;;;;;;;2.88;2.67;;;;;;;;;;5059117;28;20225;-88
2021/10/31 08:36:10;;;;;;;2.97;2.67;;;;;;;;;;5059453;28;20190;-86
2021/10/31 08:38:38;;;;;;;3.35;2.95;;;;;;;;;;5053166;28;20205;-86
2021/10/31 08:41:14;;;;;;;3.00;2.78;;;;;;;;;;5055791;28;20228;-86
2021/10/31 08:43:54;;;;;;;4.10;3.08;;;;;;;;;;5071222;28;20588;-87
2021/10/31 08:46:37;;;;;;;4.28;2.67;;;;;;;;;;5061129;28;20621;-87
2021/10/31 08:49:43;;;;;;;3.30;3.00;;;;;;;;;;5059389;28;20239;-88
2021/10/31 08:52:12;;;;;;;3.30;2.60;;;;;;;;;;5059793;28;20197;-86
2021/10/31 08:54:40;;;;;;;2.80;2.53;;;;;;;;;;5066362;28;20232;-87
2021/10/31 08:58:02;;;;;;;3.75;3.20;;;;;;;;;;5078817;28;20205;-87
2021/10/31 09:00:37;;;;;;;3.20;2.90;;;;;;;;;;5079635;28;20232;-89
2021/10/31 09:07:22;;;;;;;3.10;2.80;;;;;;;;;;5078894;28;20176;-90
2021/10/31 09:10:00;;;;;;;2.80;2.60;;;;;;;;;;5079652;28;20185;-92
2021/10/31 09:12:30;;;;;;;2.20;2.00;;;;;;;;;;5079417;28;20284;-88
2021/10/31 09:15:31;;;;;;;3.13;2.85;;;;;;;;;;5079300;28;20197;-90
2021/10/31 09:18:08;;;;;;;3.03;2.60;;;;;;;;;;5079265;28;20196;-88
2021/10/31 09:20:43;;;;;;;5.30;2.72;;;;;;;;;;5079760;28;20199;-87
2021/10/31 09:23:38;;;;;;;3.35;3.05;;;;;;;;;;5079318;28;20217;-87
2021/10/31 09:26:19;;;;;;;2.67;2.45;;;;;;;;;;5079198;28;20204;-86
2021/10/31 09:29:06;;;;;;;2.58;2.38;;;;;;;;;;5076351;28;20683;-85
2021/10/31 09:31:56;;;;;;;3.20;3.00;;;;;;;;;;5075324;28;20204;-86
2021/10/31 09:35:15;;;;;;;3.63;3.33;;;;;;;;;;5076489;28;20262;-87
2021/10/31 09:38:06;;;;;;;3.92;3.63;;;;;;;;;;5077023;28;20224;-89
2021/10/31 09:40:46;;;;;;;4.03;3.72;;;;;;;;;;5076441;28;20197;-86
2021/10/31 09:43:23;;;;;;;3.63;3.42;;;;;;;;;;5063281;28;20279;-85
2021/10/31 09:46:00;;;;;;;3.10;2.80;;;;;;;;;;5056402;28;20201;-88
2021/10/31 09:48:50;;;;;;;3.45;3.15;;;;;;;;;;5055605;28;20560;-87
2021/10/31 09:51:44;;;;;;;3.08;2.88;;;;;;;;;;5056354;28;20661;-87
2021/10/31 09:54:12;;;;;;;3.28;3.05;;;;;;;;;;5052712;28;20234;-87
2021/10/31 09:57:08;;;;;;;1.90;1.80;;;;;;;;;;5037332;28;20179;-88
2021/10/31 09:59:58;;;;;;;2.45;2.25;;;;;;;;;;5035430;28;20206;-86
2021/10/31 10:02:45;;;;;;;2.80;2.20;;;;;;;;;;5036714;28;20198;-87
2021/10/31 10:05:21;;;;;;;2.30;2.20;;;;;;;;;;5036493;28;20562;-89
2021/10/31 10:08:12;;;;;;;2.20;2.10;;;;;;;;;;5036472;28;20213;-88
2021/10/31 10:10:59;;;;;;;2.85;2.00;;;;;;;;;;5072933;28;20193;-89
2021/10/31 10:13:39;;;;;;;2.65;2.30;;;;;;;;;;5075222;28;20256;-87
2021/10/31 10:16:31;;;;;;;2.00;1.90;;;;;;;;;;5074761;28;20177;-86
2021/10/31 10:19:02;;;;;;;2.13;2.03;;;;;;;;;;5074677;28;20225;-86
2021/10/31 10:21:32;;;;;;;2.90;1.65;;;;;;;;;;5075121;28;20603;-87
2021/10/31 10:24:02;;;;;;;2.33;2.13;;;;;;;;;;5074766;28;20648;-89
2021/10/31 10:26:37;;;;;;;2.00;1.90;;;;;;;;;;5058927;28;20189;-87
2021/10/31 10:29:18;;;;;;;2.03;1.88;;;;;;;;;;5064912;28;20189;-90
2021/10/31 10:31:54;;;;;;;2.22;2.03;;;;;;;;;;5055106;28;20210;-91
2021/10/31 10:34:41;;;;;;;3.22;2.28;;;;;;;;;;5057085;28;20217;-88
2021/10/31 10:37:11;;;;;;;2.13;1.92;;;;;;;;;;5055192;28;20225;-90
2021/10/31 10:39:40;;;;;;;2.70;2.45;;;;;;;;;;5054011;28;20227;-86
2021/10/31 10:42:09;;;;;;;2.85;2.50;;;;;;;;;;5054418;28;20209;-88
2021/10/31 10:44:40;;;;;;;2.03;1.92;;;;;;;;;;5053987;28;20296;-88
2021/10/31 10:47:12;;;;;;;2.83;2.10;;;;;;;;;;5053730;28;20205;-88
2021/10/31 10:49:43;;;;;;;2.58;2.38;;;;;;;;;;5054848;28;20190;-87
2021/10/31 10:52:26;;;;;;;2.92;2.72;;;;;;;;;;5054282;28;20206;-87
2021/10/31 10:55:05;;;;;;;2.28;2.00;;;;;;;;;;5062690;28;20270;-86
2021/10/31 10:57:35;;;;;;;2.97;2.78;;;;;;;;;;5074580;28;20215;-87
2021/10/31 11:00:10;;;;;;;3.03;2.72;;;;;;;;;;5074607;28;20225;-87
2021/10/31 11:02:38;;;;;;;3.05;2.72;;;;;;;;;;5074840;28;20231;-87
2021/10/31 11:05:08;;;;;;;5.30;2.97;;;;;;;;;;5075064;28;20211;-87
2021/10/31 11:07:41;;;;;;;2.80;2.60;;;;;;;;;;5074565;28;20193;-86
2021/10/31 11:10:17;;;;;;;2.60;2.40;;;;;;;;;;5074765;28;20239;-86
2021/10/31 11:12:46;;;;;;;2.40;2.20;;;;;;;;;;5074449;28;20189;-87
2021/10/31 11:15:18;;;;;;;2.58;2.38;;;;;;;;;;5073867;28;20298;-86
2021/10/31 11:17:49;;;;;;;2.60;2.40;;;;;;;;;;5074219;28;20538;-86
2021/10/31 11:20:19;;;;;;;2.00;1.90;;;;;;;;;;5074967;28;20232;-87
2021/10/31 11:22:50;;;;;;;1.90;1.80;;;;;;;;;;5074334;28;20201;-87
2021/10/31 11:25:22;;;;;;;2.00;1.90;;;;;;;;;;5074171;28;20188;-87
2021/10/31 11:28:12;;;;;;;2.13;1.92;;;;;;;;;;5072420;28;20205;-88
2021/10/31 11:30:51;;;;;;;3.08;2.88;;;;;;;;;;5057062;28;20197;-86
2021/10/31 11:33:20;;;;;;;2.85;2.65;;;;;;;;;;5072914;28;20263;-89
2021/10/31 11:35:47;;;;;;;3.25;2.85;;;;;;;;;;5073309;28;20201;-87
2021/10/31 11:38:19;;;;;;;2.85;2.65;;;;;;;;;;5073124;28;20291;-86
2021/10/31 11:40:52;;;;;;;2.47;2.28;;;;;;;;;;5075741;28;20223;-86
2021/10/31 11:43:35;;;;;;;2.75;2.55;;;;;;;;;;5077522;28;20745;-87
2021/10/31 11:46:07;;;;;;;3.35;3.05;;;;;;;;;;5078737;28;20224;-85
2021/10/31 11:48:36;;;;;;;3.05;2.75;;;;;;;;;;5078914;28;20601;-85
2021/10/31 11:51:13;;;;;;;3.20;3.00;;;;;;;;;;5078903;28;20208;-86
2021/10/31 11:53:43;;;;;;;3.35;3.05;;;;;;;;;;5079864;28;20247;-86
2021/10/31 11:56:21;;;;;;;3.80;3.50;;;;;;;;;;5081709;28;20308;-87
2021/10/31 11:58:58;;;;;;;3.78;3.38;;;;;;;;;;5097744;23;20232;-82
2021/10/31 12:01:51;;;;;;;3.65;3.35;;;;;;;;;;5093564;28;20216;-82
2021/10/31 12:05:24;;;;;;;4.53;4.13;;;;;;;;;;5093619;28;20185;-82
2021/10/31 12:07:53;;;;;;;5.35;4.95;;;;;;;;;;5077266;28;20207;-82
2021/10/31 12:10:29;;;;;;;6.40;5.43;;;;;;;;;;5080478;28;20220;-81
2021/10/31 12:13:11;;;;;;;6.30;5.50;;;;;;;;;;5073348;28;20189;-82
2021/10/31 12:15:40;;;;;;;4.45;4.05;;;;;;;;;;5087075;28;20556;-83
2021/10/31 12:18:09;;;;;;;4.60;4.15;;;;;;;;;;5089333;28;20212;-81
2021/10/31 12:20:53;;;;;;;5.38;4.93;;;;;;;;;;5073256;28;20182;-81
2021/10/31 12:23:27;;;;;;;4.65;4.25;;;;;;;;;;5073127;28;20188;-82
2021/10/31 12:25:55;;;;;;;4.43;4.13;;;;;;;;;;5073242;28;20184;-81
2021/10/31 12:28:42;;;;;;;2.72;2.53;;;;;;;;;;5074847;28;20221;-83
2021/10/31 12:31:30;;;;;;;2.50;2.30;;;;;;;;;;5073096;28;20209;-82
2021/10/31 12:34:22;;;;;;;3.40;2.58;;;;;;;;;;5073132;28;20196;-81
2021/10/31 12:36:52;;;;;;;2.35;2.15;;;;;;;;;;5065697;28;20230;-83
2021/10/31 12:40:03;;;;;;;2.53;2.15;;;;;;;;;;5072534;28;20221;-82
2021/10/31 12:42:33;;;;;;;1.70;1.60;;;;;;;;;;5072372;28;20203;-81
2021/10/31 12:45:02;;;;;;;1.70;1.60;;;;;;;;;;5077993;28;20196;-81
2021/10/31 12:47:40;;;;;;;1.65;1.55;;;;;;;;;;5091729;28;20192;-81
2021/10/31 12:50:17;;;;;;;2.42;1.98;;;;;;;;;;5080855;28;20223;-81
2021/10/31 12:52:47;;;;;;;1.50;1.42;;;;;;;;;;5072309;28;20265;-81
2021/10/31 12:55:17;;;;;;;1.45;1.40;;;;;;;;;;5052458;28;20202;-82
2021/10/31 12:57:56;;;;;;;1.45;1.35;;;;;;;;;;5052348;28;20832;-81
2021/10/31 13:00:25;;;;;;;1.70;1.60;;;;;;;;;;5063050;28;20185;-82
2021/10/31 13:02:56;;;;;;;1.60;1.50;;;;;;;;;;5076253;28;20649;-82
2021/10/31 13:05:27;;;;;;;2.58;1.65;;;;;;;;;;5075965;28;20190;-81
2021/10/31 13:07:58;;;;;;;2.22;2.08;;;;;;;;;;5067100;28;20188;-83
2021/10/31 13:10:28;;;;;;;1.70;1.60;;;;;;;;;;5056924;28;20602;-82
2021/10/31 13:13:03;;;;;;;1.70;1.60;;;;;;;;;;5056727;28;20190;-81
2021/10/31 13:15:33;;;;;;;2.28;2.08;;;;;;;;;;5057276;28;20197;-82
2021/10/31 13:18:02;;;;;;;1.63;1.52;;;;;;;;;;5056578;28;20277;-82
2021/10/31 13:20:33;;;;;;;1.20;1.20;;;;;;;;;;5057501;28;20248;-82
2021/10/31 13:23:04;;;;;;;1.65;1.55;;;;;;;;;;5057275;28;20228;-83
2021/10/31 13:25:37;;;;;;;1.55;1.45;;;;;;;;;;5056304;28;20662;-82
2021/10/31 13:28:15;;;;;;;1.73;1.63;;;;;;;;;;5056249;28;20284;-83
2021/10/31 13:30:57;;;;;;;1.50;1.40;;;;;;;;;;5055589;28;20225;-82
2021/10/31 13:33:33;;;;;;;1.40;1.30;;;;;;;;;;5056038;28;20211;-83
2021/10/31 13:36:15;;;;;;;1.40;1.30;;;;;;;;;;5048983;28;20281;-82
2021/10/31 13:38:53;;;;;;;1.90;1.42;;;;;;;;;;5036920;28;20226;-83
2021/10/31 13:41:23;;;;;;;1.00;1.00;;;;;;;;;;5036302;28;20187;-83
2021/10/31 13:43:51;;;;;;;0.95;0.95;;;;;;;;;;5057404;28;20653;-81
2021/10/31 13:46:19;;;;;;;1.00;1.00;;;;;;;;;;5056224;28;20192;-83
2021/10/31 13:49:05;;;;;;;1.10;1.10;;;;;;;;;;5038805;28;20214;-82
2021/10/31 13:51:34;;;;;;;1.13;1.10;;;;;;;;;;5035781;28;20248;-81
2021/10/31 13:54:03;;;;;;;0.93;0.93;;;;;;;;;;5036006;28;20216;-84
2021/10/31 13:56:36;;;;;;;2.08;1.02;;;;;;;;;;5036359;28;20190;-83
2021/10/31 13:59:04;;;;;;;0.90;0.90;;;;;;;;;;5045858;28;20222;-84
2021/10/31 14:01:36;;;;;;;0.90;0.90;;;;;;;;;;5056142;28;20189;-84
2021/10/31 14:04:08;;;;;;;1.02;1.02;;;;;;;;;;5055746;28;20190;-86
2021/10/31 14:06:38;;;;;;;1.05;1.02;;;;;;;;;;5058679;28;20200;-87
2021/10/31 14:09:08;;;;;;;5.07;1.33;;;;;;;;;;5095002;28;20655;-86
2021/10/31 14:11:49;;;;;;;1.00;1.00;;;;;;;;;;5094758;28;20243;-87
2021/10/31 14:14:30;;;;;;;0.90;0.90;;;;;;;;;;5096588;28;20187;-85
2021/10/31 14:17:10;;;;;;;1.30;1.20;;;;;;;;;;5097865;28;20200;-85
2021/10/31 14:19:38;;;;;;;1.10;1.10;;;;;;;;;;5060580;28;20217;-83
2021/10/31 14:22:07;;;;;;;1.25;1.10;;;;;;;;;;5055339;28;20186;-85
2021/10/31 14:24:35;;;;;;;1.33;1.23;;;;;;;;;;5054618;28;20212;-86
2021/10/31 14:27:18;;;;;;;1.05;1.00;;;;;;;;;;5054746;28;20197;-85
2021/10/31 14:29:46;;;;;;;1.00;1.00;;;;;;;;;;5054680;28;20213;-86
2021/10/31 14:32:13;;;;;;;0.90;0.90;;;;;;;;;;5055112;28;20285;-85
2021/10/31 14:35:00;;;;;;;1.00;1.00;;;;;;;;;;5055311;28;20277;-86
2021/10/31 14:37:29;;;;;;;0.90;0.90;;;;;;;;;;5054799;28;20280;-86
2021/10/31 14:39:57;;;;;;;1.02;1.02;;;;;;;;;;5054079;28;20304;-86
2021/10/31 14:42:26;;;;;;;1.13;1.10;;;;;;;;;;5071029;28;20201;-87
2021/10/31 14:44:54;;;;;;;0.90;0.90;;;;;;;;;;5080364;28;20303;-87
2021/10/31 14:47:22;;;;;;;1.20;1.10;;;;;;;;;;5074346;28;20548;-85
2021/10/31 14:49:49;;;;;;;0.90;0.90;;;;;;;;;;5074097;28;20231;-86
2021/10/31 14:52:17;;;;;;;0.95;0.95;;;;;;;;;;5060122;28;20222;-87
2021/10/31 14:54:49;;;;;;;0.90;0.90;;;;;;;;;;5055770;28;20206;-86
2021/10/31 14:57:22;;;;;;;0.90;0.90;;;;;;;;;;5055812;28;20296;-87
2021/10/31 14:59:54;;;;;;;0.95;0.95;;;;;;;;;;5055039;28;20230;-88
2021/10/31 15:02:27;;;;;;;1.10;1.10;;;;;;;;;;5069011;28;20268;-85
2021/10/31 15:04:55;;;;;;;0.77;0.77;;;;;;;;;;5085000;28;20633;-86
2021/10/31 15:07:24;;;;;;;1.02;1.00;;;;;;;;;;5075495;28;20205;-87
2021/10/31 15:09:53;;;;;;;1.00;1.00;;;;;;;;;;5074929;28;20217;-88
2021/10/31 15:12:21;;;;;;;1.00;1.00;;;;;;;;;;5074740;28;20220;-85
2021/10/31 15:14:50;;;;;;;1.00;1.00;;;;;;;;;;5074936;28;20185;-87
2021/10/31 15:17:20;;;;;;;1.55;1.15;;;;;;;;;;5075470;28;20663;-86
2021/10/31 15:19:51;;;;;;;1.20;1.10;;;;;;;;;;5074562;28;20672;-84
2021/10/31 15:22:18;;;;;;;1.27;1.20;;;;;;;;;;5055530;28;20236;-85
2021/10/31 15:24:46;;;;;;;1.75;1.02;;;;;;;;;;5055182;28;20596;-87
2021/10/31 15:27:18;;;;;;;1.05;1.05;;;;;;;;;;5055132;28;20224;-88
2021/10/31 15:29:49;;;;;;;0.90;0.90;;;;;;;;;;5054791;28;20225;-84
2021/10/31 15:32:16;;;;;;;0.90;0.90;;;;;;;;;;5054087;28;20814;-86
2021/10/31 15:34:45;;;;;;;0.93;0.93;;;;;;;;;;5053474;28;20198;-87
2021/10/31 15:37:14;;;;;;;1.25;1.23;;;;;;;;;;5054184;28;20570;-86
2021/10/31 15:39:42;;;;;;;1.30;1.20;;;;;;;;;;5046938;28;20265;-87
2021/10/31 15:42:10;;;;;;;1.30;1.20;;;;;;;;;;5057687;28;20221;-86
2021/10/31 15:45:00;;;;;;;1.60;1.50;;;;;;;;;;5075654;28;20634;-85
2021/10/31 15:47:28;;;;;;;1.02;1.02;;;;;;;;;;5079054;28;20208;-84
2021/10/31 15:50:03;;;;;;;0.80;0.80;;;;;;;;;;5077663;28;20291;-87
2021/10/31 15:52:30;;;;;;;0.90;0.90;;;;;;;;;;5076913;28;20223;-85
2021/10/31 15:54:58;;;;;;;1.08;1.08;;;;;;;;;;5076723;28;20207;-84
2021/10/31 15:57:26;;;;;;;1.40;1.30;;;;;;;;;;5078188;28;20280;-84